createdAt,value
2023-05-25T00:01:07.923Z,16.47
2023-05-25T00:03:40.500Z,16.45
2023-05-25T00:06:10.439Z,16.42
2023-05-25T00:08:40.492Z,16.41
2023-05-25T00:11:09.656Z,16.35
2023-05-25T00:13:39.655Z,16.35
2023-05-25T00:16:08.833Z,16.37
2023-05-25T00:18:38.057Z,16.36
2023-05-25T00:21:07.407Z,16.38
2023-05-25T00:23:36.542Z,16.37
2023-05-25T00:26:05.793Z,16.36
2023-05-25T00:28:34.901Z,16.33
2023-05-25T00:31:04.090Z,16.32
2023-05-25T00:33:33.195Z,16.28
2023-05-25T00:36:03.468Z,16.29
2023-05-25T00:38:32.773Z,16.30
2023-05-25T00:41:01.937Z,16.31
2023-05-25T00:43:31.131Z,16.34
2023-05-25T00:46:02.406Z,16.33
2023-05-25T00:48:31.997Z,16.26
2023-05-25T00:51:01.743Z,16.30
2023-05-25T00:53:33.865Z,16.26
2023-05-25T00:56:10.988Z,16.30
2023-05-25T00:58:43.507Z,16.30
2023-05-25T01:01:15.282Z,16.32
2023-05-25T01:03:54.161Z,16.31
2023-05-25T01:06:23.766Z,16.33
2023-05-25T01:09:00.396Z,16.31
2023-05-25T01:11:36.305Z,16.32
2023-05-25T01:14:06.344Z,16.29
2023-05-25T01:16:37.851Z,16.31
2023-05-25T01:19:07.095Z,16.31
2023-05-25T01:21:38.079Z,16.30
2023-05-25T01:24:17.686Z,16.28
2023-05-25T01:26:53.150Z,16.18
2023-05-25T01:29:25.071Z,16.12
2023-05-25T01:31:56.319Z,16.09
2023-05-25T01:34:26.863Z,16.01
2023-05-25T01:36:56.719Z,15.99
2023-05-25T01:39:26.132Z,16.04
2023-05-25T01:41:55.285Z,16.09
2023-05-25T01:44:26.204Z,16.12
2023-05-25T01:47:04.056Z,16.12
2023-05-25T01:49:58.574Z,16.08
2023-05-25T01:52:34.349Z,16.06
2023-05-25T01:55:08.108Z,16.09
2023-05-25T01:57:42.829Z,16.11
2023-05-25T02:00:16.355Z,16.07
2023-05-25T02:02:47.242Z,16.02
2023-05-25T02:05:18.976Z,16.03
2023-05-25T02:07:48.155Z,16.02
2023-05-25T02:10:17.335Z,16.01
2023-05-25T02:12:46.756Z,15.95
2023-05-25T02:15:16.624Z,15.84
2023-05-25T02:17:45.823Z,15.72
2023-05-25T02:20:36.948Z,15.59
2023-05-25T02:23:06.326Z,15.59
2023-05-25T02:25:35.489Z,15.57
2023-05-25T02:28:05.137Z,15.54
2023-05-25T02:30:34.675Z,15.44
2023-05-25T02:33:03.830Z,15.36
2023-05-25T02:35:33.513Z,15.29
2023-05-25T02:38:03.085Z,15.21
2023-05-25T02:40:32.289Z,15.14
2023-05-25T02:43:01.417Z,15.11
2023-05-25T02:45:31.042Z,15.10
2023-05-25T02:48:00.243Z,15.03
2023-05-25T02:50:30.453Z,14.98
2023-05-25T02:53:03.426Z,14.89
2023-05-25T02:55:33.360Z,14.79
2023-05-25T02:58:02.915Z,14.68
2023-05-25T03:00:50.850Z,14.65
2023-05-25T03:03:20.450Z,14.67
2023-05-25T03:05:49.642Z,14.79
2023-05-25T03:08:19.386Z,14.86
2023-05-25T03:10:48.588Z,14.96
2023-05-25T03:13:18.972Z,15.01
2023-05-25T03:15:48.146Z,15.04
2023-05-25T03:18:18.061Z,15.12
2023-05-25T03:20:47.839Z,15.21
2023-05-25T03:23:17.017Z,15.23
2023-05-25T03:25:46.821Z,15.15
2023-05-25T03:28:16.346Z,15.09
2023-05-25T03:30:46.195Z,15.01
2023-05-25T03:33:15.724Z,15.02
2023-05-25T03:35:48.937Z,15.02
2023-05-25T03:38:18.151Z,15.07
2023-05-25T03:40:47.952Z,15.11
2023-05-25T03:43:18.107Z,15.13
2023-05-25T03:45:49.974Z,15.09
2023-05-25T03:48:19.300Z,15.07
2023-05-25T03:50:49.208Z,15.07
2023-05-25T03:53:18.348Z,15.05
2023-05-25T03:55:47.542Z,15.14
2023-05-25T03:58:18.445Z,15.26
2023-05-25T04:00:52.633Z,15.32
2023-05-25T04:03:22.146Z,15.39
2023-05-25T04:05:51.359Z,15.47
2023-05-25T04:08:20.477Z,15.46
2023-05-25T04:10:49.502Z,15.48
2023-05-25T04:13:18.558Z,15.47
2023-05-25T04:15:47.758Z,15.47
2023-05-25T04:18:20.772Z,15.41
2023-05-25T04:20:50.952Z,15.35
2023-05-25T04:23:23.493Z,15.25
2023-05-25T04:25:54.923Z,15.12
2023-05-25T04:28:24.676Z,15.05
2023-05-25T04:31:12.922Z,14.98
2023-05-25T04:34:05.221Z,14.96
2023-05-25T04:36:43.300Z,15.01
2023-05-25T04:39:13.776Z,15.17
2023-05-25T04:41:48.550Z,15.24
2023-05-25T04:44:17.841Z,15.36
2023-05-25T04:46:50.610Z,15.47
2023-05-25T04:49:25.088Z,15.64
2023-05-25T04:51:54.595Z,15.80
2023-05-25T04:54:23.821Z,16.01
2023-05-25T04:56:53.327Z,16.10
2023-05-25T04:59:22.713Z,16.11
2023-05-25T05:01:51.932Z,16.16
2023-05-25T05:04:21.192Z,16.34
2023-05-25T05:06:51.502Z,16.62
2023-05-25T05:09:22.962Z,16.91
2023-05-25T05:11:52.133Z,17.09
2023-05-25T05:14:21.506Z,17.23
2023-05-25T05:16:51.531Z,17.31
2023-05-25T05:19:21.012Z,17.34
2023-05-25T05:21:50.172Z,17.41
2023-05-25T05:24:20.075Z,17.54
2023-05-25T05:29:28.272Z,17.84
2023-05-25T05:31:57.585Z,17.95
2023-05-25T05:34:27.594Z,18.04
2023-05-25T05:39:17.965Z,18.17
2023-05-25T05:41:47.729Z,18.25
2023-05-25T05:44:16.955Z,18.30
2023-05-25T05:46:46.242Z,18.28
2023-05-25T05:49:15.517Z,18.26
2023-05-25T05:51:44.835Z,18.13
2023-05-25T05:54:14.014Z,18.06
2023-05-25T05:56:43.174Z,18.14
2023-05-25T05:59:12.343Z,18.27
2023-05-25T06:01:42.722Z,18.30
2023-05-25T06:04:12.237Z,18.19
2023-05-25T06:06:43.131Z,18.14
2023-05-25T06:09:12.764Z,18.29
2023-05-25T06:11:42.259Z,18.35
2023-05-25T06:14:12.224Z,18.38
2023-05-25T06:16:43.830Z,18.45
2023-05-25T06:19:14.583Z,18.52
2023-05-25T06:21:44.416Z,18.57
2023-05-25T06:24:15.288Z,18.60
2023-05-25T06:26:44.420Z,18.60
2023-05-25T06:29:16.683Z,18.57
2023-05-25T06:31:46.249Z,18.57
2023-05-25T06:34:15.540Z,18.55
2023-05-25T06:36:45.027Z,18.56
2023-05-25T06:39:15.460Z,18.62
2023-05-25T06:41:45.437Z,18.65
2023-05-25T06:44:19.021Z,18.69
2023-05-25T06:46:49.462Z,18.73
2023-05-25T06:49:18.714Z,18.81
2023-05-25T06:51:49.055Z,18.85
2023-05-25T06:54:19.665Z,18.93
2023-05-25T06:56:48.889Z,19.01
2023-05-25T06:59:18.487Z,19.06
2023-05-25T07:01:47.777Z,19.11
2023-05-25T07:04:17.021Z,19.14
2023-05-25T07:06:46.241Z,19.17
2023-05-25T07:09:15.980Z,19.22
2023-05-25T07:11:45.421Z,19.27
2023-05-25T07:14:14.534Z,19.35
2023-05-25T07:16:45.239Z,19.40
2023-05-25T07:19:14.646Z,19.39
2023-05-25T07:21:43.939Z,19.47
2023-05-25T07:24:13.096Z,19.56
2023-05-25T07:26:44.505Z,19.67
2023-05-25T07:29:13.682Z,19.72
2023-05-25T07:31:43.020Z,19.75
2023-05-25T07:34:12.144Z,19.86
2023-05-25T07:36:41.311Z,19.97
2023-05-25T07:39:11.402Z,20.04
2023-05-25T07:41:40.606Z,20.10
2023-05-25T07:44:09.785Z,20.18
2023-05-25T07:46:39.062Z,20.23
2023-05-25T07:49:13.129Z,20.31
2023-05-25T07:51:44.838Z,20.40
2023-05-25T07:54:14.023Z,20.44
2023-05-25T07:56:43.177Z,20.51
2023-05-25T07:59:12.708Z,20.59
2023-05-25T08:01:41.867Z,20.65
2023-05-25T08:04:11.160Z,20.72
2023-05-25T08:06:40.321Z,20.79
2023-05-25T08:09:09.500Z,20.86
2023-05-25T08:11:40.108Z,20.98
2023-05-25T08:14:09.213Z,21.05
2023-05-25T08:16:38.382Z,21.12
2023-05-25T08:19:07.557Z,21.16
2023-05-25T08:21:37.723Z,21.22
2023-05-25T08:24:08.472Z,21.32
2023-05-25T08:26:53.039Z,21.35
2023-05-25T08:29:23.733Z,21.36
2023-05-25T08:31:52.916Z,21.41
2023-05-25T08:34:22.100Z,21.49
2023-05-25T08:36:51.214Z,21.54
2023-05-25T08:39:20.355Z,21.59
2023-05-25T08:41:50.493Z,21.68
2023-05-25T08:44:19.680Z,21.77
2023-05-25T08:46:49.789Z,21.83
2023-05-25T08:49:19.015Z,21.92
2023-05-25T08:51:53.570Z,21.97
2023-05-25T08:54:30.242Z,22.03
2023-05-25T08:57:08.164Z,22.04
2023-05-25T08:59:47.680Z,22.18
2023-05-25T09:02:34.887Z,22.30
2023-05-25T09:05:04.778Z,22.40
2023-05-25T09:07:34.976Z,22.50
2023-05-25T09:10:05.180Z,22.53
2023-05-25T09:12:36.263Z,22.58
2023-05-25T09:15:06.266Z,22.62
2023-05-25T09:17:38.093Z,22.72
2023-05-25T09:20:10.526Z,22.81
2023-05-25T09:22:41.347Z,22.91
2023-05-25T09:25:11.580Z,22.99
2023-05-25T09:27:42.092Z,23.01
2023-05-25T09:30:12.232Z,23.07
2023-05-25T09:32:42.042Z,23.14
2023-05-25T09:35:13.159Z,23.24
2023-05-25T09:37:43.819Z,23.27
2023-05-25T09:40:15.351Z,23.38
2023-05-25T09:42:45.311Z,23.42
2023-05-25T09:45:14.424Z,23.49
2023-05-25T09:47:43.791Z,23.57
2023-05-25T09:50:13.022Z,23.68
2023-05-25T09:52:42.390Z,23.75
2023-05-25T09:55:12.665Z,23.78
2023-05-25T09:57:43.342Z,23.86
2023-05-25T10:00:13.061Z,23.86
2023-05-25T10:02:43.326Z,23.89
2023-05-25T10:05:12.618Z,23.92
2023-05-25T10:07:42.986Z,24.01
2023-05-25T10:10:18.387Z,24.10
2023-05-25T10:12:52.844Z,24.19
2023-05-25T10:15:22.938Z,24.28
2023-05-25T10:17:56.468Z,24.34
2023-05-25T10:20:28.293Z,24.41
2023-05-25T10:23:08.586Z,24.51
2023-05-25T10:25:45.235Z,24.56
2023-05-25T10:28:22.874Z,24.61
2023-05-25T10:30:53.642Z,24.65
2023-05-25T10:33:23.069Z,24.71
2023-05-25T10:36:03.098Z,24.77
2023-05-25T10:38:40.659Z,24.80
2023-05-25T10:41:11.359Z,24.87
2023-05-25T10:43:41.304Z,24.90
2023-05-25T10:46:10.959Z,24.97
2023-05-25T10:48:46.250Z,25.02
2023-05-25T10:51:15.777Z,25.07
2023-05-25T10:53:46.500Z,25.13
2023-05-25T10:56:15.990Z,25.19
2023-05-25T10:58:46.560Z,25.25
2023-05-25T11:01:16.349Z,25.32
2023-05-25T11:04:11.271Z,25.41
2023-05-25T11:06:40.593Z,25.53
2023-05-25T11:09:24.736Z,25.60
2023-05-25T11:11:55.662Z,25.63
2023-05-25T11:14:30.135Z,25.65
2023-05-25T11:17:12.183Z,25.72
2023-05-25T11:19:41.326Z,25.77
2023-05-25T11:22:20.559Z,25.84
2023-05-25T11:24:51.065Z,25.90
2023-05-25T11:27:24.626Z,25.97
2023-05-25T11:29:56.547Z,26.07
2023-05-25T11:32:26.990Z,26.16
2023-05-25T11:34:58.525Z,26.19
2023-05-25T11:37:33.648Z,26.15
2023-05-25T11:40:07.145Z,26.15
2023-05-25T11:42:38.330Z,26.15
2023-05-25T11:45:11.585Z,26.17
2023-05-25T11:47:41.389Z,26.21
2023-05-25T11:50:17.347Z,26.27
2023-05-25T11:52:46.529Z,26.32
2023-05-25T11:55:15.805Z,26.41
2023-05-25T11:57:45.206Z,26.44
2023-05-25T12:00:25.184Z,26.47
2023-05-25T12:02:56.360Z,26.52
2023-05-25T12:05:25.885Z,26.58
2023-05-25T12:07:55.066Z,26.65
2023-05-25T12:10:24.224Z,26.70
2023-05-25T12:12:58.229Z,26.74
2023-05-25T12:15:30.728Z,26.76
2023-05-25T12:18:00.199Z,26.81
2023-05-25T12:20:29.442Z,26.87
2023-05-25T12:22:58.681Z,26.89
2023-05-25T12:25:38.588Z,26.97
2023-05-25T12:28:16.289Z,27.85
2023-05-25T12:30:45.903Z,30.04
2023-05-25T12:33:15.718Z,32.45
2023-05-25T12:35:49.742Z,34.62
2023-05-25T12:38:21.601Z,36.48
2023-05-25T12:41:07.397Z,36.82
2023-05-25T12:43:43.029Z,37.25
2023-05-25T12:46:23.602Z,38.60
2023-05-25T12:48:52.853Z,40.49
2023-05-25T12:51:22.028Z,42.16
2023-05-25T12:53:51.807Z,43.57
2023-05-25T12:56:22.591Z,43.34
2023-05-25T12:58:51.797Z,43.73
2023-05-25T13:01:21.047Z,45.17
2023-05-25T13:03:50.226Z,46.22
2023-05-25T13:06:19.405Z,46.45
2023-05-25T13:08:49.267Z,47.85
2023-05-25T13:11:18.366Z,48.99
2023-05-25T13:13:47.483Z,50.29
2023-05-25T13:16:16.676Z,51.36
2023-05-25T13:18:45.855Z,50.50
2023-05-25T13:21:15.025Z,46.18
2023-05-25T13:23:44.398Z,42.07
2023-05-25T13:26:13.507Z,42.81
2023-05-25T13:28:42.677Z,45.85
2023-05-25T13:31:11.877Z,47.66
2023-05-25T13:33:41.035Z,47.92
2023-05-25T13:36:10.304Z,49.64
2023-05-25T13:38:39.394Z,50.86
2023-05-25T13:41:08.785Z,51.97
2023-05-25T13:43:38.637Z,52.10
2023-05-25T13:46:11.557Z,51.75
2023-05-25T13:48:48.409Z,51.76
2023-05-25T13:51:18.438Z,50.76
2023-05-25T13:53:49.016Z,48.87
2023-05-25T13:56:18.169Z,47.29
2023-05-25T13:58:47.316Z,44.29
2023-05-25T14:01:16.560Z,41.45
2023-05-25T14:03:46.523Z,39.34
2023-05-25T14:06:15.905Z,37.67
2023-05-25T14:08:44.997Z,36.32
2023-05-25T14:11:14.104Z,35.46
2023-05-25T14:13:43.205Z,35.04
2023-05-25T14:16:12.396Z,36.49
2023-05-25T14:18:41.652Z,40.24
2023-05-25T14:21:13.032Z,43.32
2023-05-25T14:23:42.193Z,45.02
2023-05-25T14:26:11.369Z,45.34
2023-05-25T14:28:40.661Z,42.95
2023-05-25T14:31:10.167Z,40.94
2023-05-25T14:33:40.757Z,40.33
2023-05-25T14:36:11.587Z,39.22
2023-05-25T14:38:40.775Z,37.86
2023-05-25T14:41:09.844Z,37.23
2023-05-25T14:43:38.941Z,37.37
2023-05-25T14:46:08.787Z,36.28
2023-05-25T14:48:37.936Z,35.01
2023-05-25T14:51:07.128Z,33.83
2023-05-25T14:53:36.328Z,32.66
2023-05-25T14:56:05.775Z,31.47
2023-05-25T14:58:35.116Z,30.44
2023-05-25T15:01:05.104Z,29.39
2023-05-25T15:03:34.439Z,28.28
2023-05-25T15:06:03.709Z,26.83
2023-05-25T15:08:32.869Z,25.02
2023-05-25T15:11:01.931Z,23.82
2023-05-25T15:13:31.173Z,23.31
2023-05-25T15:16:00.510Z,23.11
2023-05-25T15:18:29.668Z,22.95
2023-05-25T15:20:59.310Z,22.88
2023-05-25T15:23:28.575Z,22.73
2023-05-25T15:25:57.750Z,22.61
2023-05-25T15:28:27.001Z,22.70
2023-05-25T15:30:56.306Z,25.59
2023-05-25T15:33:35.719Z,27.94
2023-05-25T15:36:13.255Z,27.69
2023-05-25T15:38:48.917Z,27.18
2023-05-25T15:41:18.605Z,26.75
2023-05-25T15:43:54.604Z,26.58
2023-05-25T15:46:24.740Z,26.63
2023-05-25T15:48:54.339Z,27.33
2023-05-25T15:51:23.481Z,27.38
2023-05-25T15:53:54.776Z,27.26
2023-05-25T15:56:24.083Z,27.29
2023-05-25T15:58:53.417Z,28.85
2023-05-25T16:01:22.674Z,32.26
2023-05-25T16:03:51.856Z,34.89
2023-05-25T16:06:21.029Z,36.89
2023-05-25T16:08:50.224Z,38.29
2023-05-25T16:11:19.583Z,39.24
2023-05-25T16:13:48.747Z,39.86
2023-05-25T16:16:19.360Z,40.16
2023-05-25T16:18:48.593Z,40.17
2023-05-25T16:21:17.740Z,40.40
2023-05-25T16:23:46.918Z,40.89
2023-05-25T16:26:16.336Z,41.17
2023-05-25T16:28:45.645Z,41.30
2023-05-25T16:31:15.824Z,41.43
2023-05-25T16:33:46.312Z,41.60
2023-05-25T16:36:15.634Z,41.76
2023-05-25T16:38:44.935Z,41.78
2023-05-25T16:41:14.109Z,41.95
2023-05-25T16:43:43.349Z,42.03
2023-05-25T16:46:12.578Z,41.69
2023-05-25T16:48:41.704Z,41.34
2023-05-25T16:51:15.187Z,39.19
2023-05-25T16:53:45.295Z,35.53
2023-05-25T16:56:15.213Z,33.04
2023-05-25T16:58:44.439Z,31.37
2023-05-25T17:01:13.560Z,30.15
2023-05-25T17:03:42.942Z,29.22
2023-05-25T17:06:12.140Z,28.39
2023-05-25T17:08:41.187Z,27.73
2023-05-25T17:11:10.790Z,27.03
2023-05-25T17:13:39.942Z,26.31
2023-05-25T17:16:10.098Z,25.72
2023-05-25T17:18:39.317Z,25.20
2023-05-25T17:21:08.398Z,24.73
2023-05-25T17:23:37.516Z,24.33
2023-05-25T17:26:06.596Z,23.98
2023-05-25T17:28:36.044Z,23.69
2023-05-25T17:31:05.437Z,23.45
2023-05-25T17:33:34.568Z,23.19
2023-05-25T17:36:03.833Z,22.92
2023-05-25T17:38:35.083Z,22.66
2023-05-25T17:41:04.388Z,22.44
2023-05-25T17:43:33.464Z,22.24
2023-05-25T17:46:02.725Z,22.06
2023-05-25T17:48:31.885Z,21.88
2023-05-25T17:51:01.054Z,21.66
2023-05-25T17:53:30.199Z,21.44
2023-05-25T17:55:59.361Z,21.26
2023-05-25T17:58:28.493Z,21.03
2023-05-25T18:00:57.665Z,20.83
2023-05-25T18:03:26.996Z,20.69
2023-05-25T18:05:56.133Z,20.52
2023-05-25T18:08:25.375Z,20.36
2023-05-25T18:10:54.497Z,20.17
2023-05-25T18:13:23.739Z,20.00
2023-05-25T18:15:52.983Z,19.82
2023-05-25T18:18:24.769Z,19.66
2023-05-25T18:20:54.000Z,19.52
2023-05-25T18:23:23.371Z,19.35
2023-05-25T18:25:52.798Z,19.22
2023-05-25T18:28:23.504Z,19.10
2023-05-25T18:30:52.632Z,18.96
2023-05-25T18:33:21.822Z,18.88
2023-05-25T18:35:50.902Z,18.76
2023-05-25T18:38:20.044Z,18.66
2023-05-25T18:40:49.171Z,18.55
2023-05-25T18:43:18.308Z,18.46
2023-05-25T18:45:47.681Z,18.35
2023-05-25T18:48:19.042Z,18.22
2023-05-25T18:50:48.423Z,18.13
2023-05-25T18:53:17.605Z,18.05
2023-05-25T18:55:47.023Z,18.00
2023-05-25T18:58:16.296Z,17.99
2023-05-25T19:00:45.561Z,17.91
2023-05-25T19:03:14.973Z,17.82
2023-05-25T19:05:44.390Z,17.78
2023-05-25T19:08:13.620Z,17.76
2023-05-25T19:10:42.812Z,17.68
2023-05-25T19:13:11.961Z,17.59
2023-05-25T19:15:41.059Z,17.51
2023-05-25T19:18:10.384Z,17.45
2023-05-25T19:20:39.579Z,17.41
2023-05-25T19:23:08.900Z,17.33
2023-05-25T19:25:38.491Z,17.28
2023-05-25T19:28:07.583Z,17.25
2023-05-25T19:30:36.840Z,17.15
2023-05-25T19:33:06.053Z,17.15
2023-05-25T19:35:35.723Z,17.09
2023-05-25T19:38:05.008Z,17.02
2023-05-25T19:40:34.221Z,16.97
2023-05-25T19:43:03.337Z,16.87
2023-05-25T19:45:32.572Z,16.84
2023-05-25T19:48:02.042Z,16.82
2023-05-25T19:50:31.693Z,16.76
2023-05-25T19:53:01.288Z,16.75
2023-05-25T19:55:30.939Z,16.72
2023-05-25T19:58:00.128Z,16.68
2023-05-25T20:00:29.450Z,16.67
2023-05-25T20:02:58.785Z,16.66
2023-05-25T20:05:28.126Z,16.63
2023-05-25T20:07:57.383Z,16.63
2023-05-25T20:10:26.545Z,16.62
2023-05-25T20:12:55.772Z,16.60
2023-05-25T20:15:24.889Z,16.59
2023-05-25T20:17:54.026Z,16.58
2023-05-25T20:20:23.203Z,16.54
2023-05-25T20:22:52.335Z,16.50
2023-05-25T20:25:21.485Z,16.47
2023-05-25T20:27:50.592Z,16.41
2023-05-25T20:30:19.832Z,16.39
2023-05-25T20:32:49.319Z,16.35
2023-05-25T20:35:18.621Z,16.31
2023-05-25T20:37:47.871Z,16.29
2023-05-25T20:40:17.116Z,16.29
2023-05-25T20:42:47.103Z,16.25
2023-05-25T20:45:16.283Z,16.22
2023-05-25T20:47:45.629Z,16.21
2023-05-25T20:50:14.797Z,16.19
2023-05-25T20:52:43.911Z,16.15
2023-05-25T20:55:13.081Z,16.07
2023-05-25T20:57:42.142Z,16.05
2023-05-25T21:00:12.047Z,16.05
2023-05-25T21:02:41.416Z,16.06
2023-05-25T21:05:11.043Z,16.04
2023-05-25T21:07:40.143Z,16.01
2023-05-25T21:10:09.571Z,16.00
2023-05-25T21:12:38.764Z,15.97
2023-05-25T21:15:08.713Z,15.95
2023-05-25T21:17:37.863Z,15.92
2023-05-25T21:20:07.543Z,15.90
2023-05-25T21:22:37.398Z,15.85
2023-05-25T21:25:06.988Z,15.85
2023-05-25T21:27:36.137Z,15.83
2023-05-25T21:30:06.064Z,15.85
2023-05-25T21:32:35.932Z,15.80
2023-05-25T21:35:05.238Z,15.76
2023-05-25T21:37:34.900Z,15.75
2023-05-25T21:40:04.340Z,15.72
2023-05-25T21:42:33.469Z,15.70
2023-05-25T21:45:03.488Z,15.70
2023-05-25T21:47:33.703Z,15.75
2023-05-25T21:50:03.052Z,15.83
2023-05-25T21:52:32.565Z,15.94
2023-05-25T21:55:01.868Z,16.02
2023-05-25T21:57:32.595Z,16.08
2023-05-25T22:00:02.060Z,16.15
2023-05-25T22:02:42.023Z,16.25
2023-05-25T22:05:11.756Z,16.32
2023-05-25T22:07:41.814Z,16.34
2023-05-25T22:10:11.434Z,16.39
2023-05-25T22:12:40.660Z,16.42
2023-05-25T22:15:10.137Z,16.46
2023-05-25T22:17:39.365Z,16.50
2023-05-25T22:20:09.006Z,16.52
2023-05-25T22:22:38.211Z,16.50
2023-05-25T22:25:07.543Z,16.50
2023-05-25T22:27:37.005Z,16.46
2023-05-25T22:30:07.134Z,16.35
2023-05-25T22:32:36.534Z,16.31
2023-05-25T22:35:06.486Z,16.25
2023-05-25T22:37:35.645Z,16.23
2023-05-25T22:40:06.227Z,16.18
2023-05-25T22:42:35.446Z,16.14
2023-05-25T22:45:05.020Z,16.15
2023-05-25T22:47:34.221Z,16.13
2023-05-25T22:50:03.352Z,16.13
2023-05-25T22:52:32.912Z,16.17
2023-05-25T22:55:02.033Z,16.18
2023-05-25T22:57:32.735Z,16.17
2023-05-25T23:00:01.991Z,16.20
2023-05-25T23:02:32.722Z,16.21
2023-05-25T23:05:02.039Z,16.29
2023-05-25T23:07:32.794Z,16.32
2023-05-25T23:10:02.575Z,16.38
2023-05-25T23:12:32.962Z,16.45
2023-05-25T23:15:02.926Z,16.51
2023-05-25T23:17:33.129Z,16.55
2023-05-25T23:20:02.389Z,16.62
2023-05-25T23:22:32.271Z,16.66
2023-05-25T23:25:01.618Z,16.68
2023-05-25T23:27:31.844Z,16.73
2023-05-25T23:30:02.970Z,16.72
2023-05-25T23:32:33.059Z,16.73
2023-05-25T23:35:02.334Z,16.74
2023-05-25T23:37:32.864Z,16.72
2023-05-25T23:40:02.075Z,16.72
2023-05-25T23:42:37.828Z,16.68
2023-05-25T23:45:08.275Z,16.63
2023-05-25T23:47:37.387Z,16.55
2023-05-25T23:50:06.864Z,16.52
2023-05-25T23:52:36.062Z,16.51
2023-05-25T23:55:06.497Z,16.50
2023-05-25T23:57:36.650Z,16.38
